Terminal Aerodrome Forecast
Issued by NWS Twin Cities, MN

Home | Current Version | Previous Version | Text Only | Print | Product List | Glossary On
Versions: 1 2 3 4 5 6 7 8 9 10 11 12 13 14 15 16
000
FTUS43 KMPX 192300 RRA
TAFEAU
TAF
KEAU 192339Z 2000/2024 18008KT P6SM VCSH SCT035 OVC070
     FM200900 19005KT P6SM -SHRA OVC060
     FM201400 19004KT P6SM SCT060
     FM202000 05004KT P6SM BKN070=

USA.gov is the U.S. government's official web portal to all federal, state and local government web resources and services.